createdAt,value
2017-12-22T00:00:04.845Z,57.00
2017-12-22T00:01:04.822Z,57.00
2017-12-22T00:02:04.802Z,56.80
2017-12-22T00:03:04.793Z,59.50
2017-12-22T00:04:04.767Z,61.10
2017-12-22T00:05:04.753Z,59.20
2017-12-22T00:06:04.733Z,60.60
2017-12-22T00:07:04.707Z,61.30
2017-12-22T00:08:04.694Z,60.90
2017-12-22T00:09:04.669Z,61.20
2017-12-22T00:10:04.692Z,62.40
2017-12-22T00:11:04.631Z,63.20
2017-12-22T00:12:04.613Z,64.40
2017-12-22T00:13:04.600Z,57.80
2017-12-22T00:14:04.571Z,60.90
2017-12-22T00:15:04.571Z,58.60
2017-12-22T00:16:04.538Z,60.10
2017-12-22T00:17:04.523Z,57.20
2017-12-22T00:18:04.495Z,59.60
2017-12-22T00:19:04.474Z,56.70
2017-12-22T00:20:04.458Z,55.40
2017-12-22T00:21:04.440Z,54.60
2017-12-22T00:22:04.420Z,53.10
2017-12-22T00:23:04.401Z,53.10
2017-12-22T00:24:04.379Z,55.90
2017-12-22T00:25:04.365Z,57.40
2017-12-22T00:26:04.353Z,54.80
2017-12-22T00:27:04.325Z,59.70
2017-12-22T00:28:04.311Z,51.50
2017-12-22T00:29:04.293Z,58.20
2017-12-22T00:30:05.256Z,55.40
2017-12-22T00:31:04.253Z,54.80
2017-12-22T00:32:04.238Z,53.40
2017-12-22T00:33:04.211Z,51.50
2017-12-22T00:34:04.190Z,55.50
2017-12-22T00:35:04.172Z,56.90
2017-12-22T00:36:04.158Z,56.90
2017-12-22T00:37:04.140Z,56.30
2017-12-22T00:38:04.121Z,58.40
2017-12-22T00:39:04.103Z,56.30
2017-12-22T00:40:04.081Z,58.90
2017-12-22T00:41:04.059Z,53.50
2017-12-22T00:42:04.037Z,57.40
2017-12-22T00:43:04.022Z,53.70
2017-12-22T00:44:04.000Z,59.60
2017-12-22T00:45:03.983Z,57.90
2017-12-22T00:46:03.970Z,53.90
2017-12-22T00:47:03.943Z,54.50
2017-12-22T00:48:03.932Z,53.80
2017-12-22T00:49:03.905Z,54.70
2017-12-22T00:50:03.890Z,59.70
2017-12-22T00:51:03.876Z,55.90
2017-12-22T00:52:03.849Z,54.50
2017-12-22T00:53:03.837Z,57.30
2017-12-22T00:54:03.813Z,54.30
2017-12-22T00:55:03.800Z,54.80
2017-12-22T00:56:03.777Z,61.00
2017-12-22T00:57:03.769Z,57.50
2017-12-22T00:58:03.741Z,54.70
2017-12-22T00:59:03.723Z,54.30
2017-12-22T01:00:03.705Z,56.90
2017-12-22T01:01:03.681Z,57.00
2017-12-22T01:02:03.672Z,54.00
2017-12-22T01:03:03.650Z,55.00
2017-12-22T01:04:03.627Z,52.90
2017-12-22T01:05:03.605Z,55.50
2017-12-22T01:06:03.592Z,57.60
2017-12-22T01:07:03.570Z,53.10
2017-12-22T01:08:03.550Z,54.80
2017-12-22T01:09:03.532Z,53.40
2017-12-22T01:10:03.520Z,54.00
2017-12-22T01:11:03.493Z,58.90
2017-12-22T01:12:03.478Z,54.80
2017-12-22T01:13:03.455Z,53.20
2017-12-22T01:14:03.439Z,58.90
2017-12-22T01:15:03.426Z,57.50
2017-12-22T01:16:03.400Z,55.70
2017-12-22T01:17:03.380Z,61.10
2017-12-22T01:18:03.370Z,53.60
2017-12-22T01:19:03.346Z,52.50
2017-12-22T01:20:03.329Z,55.90
2017-12-22T01:21:03.312Z,57.90
2017-12-22T01:22:03.288Z,55.60
2017-12-22T01:23:03.274Z,58.50
2017-12-22T01:24:03.249Z,56.40
2017-12-22T01:25:03.238Z,55.10
2017-12-22T01:26:03.215Z,61.70
2017-12-22T01:27:03.193Z,63.60
2017-12-22T01:28:03.180Z,57.60
2017-12-22T01:29:03.160Z,58.20
2017-12-22T01:30:03.139Z,61.40
2017-12-22T01:31:03.119Z,60.50
2017-12-22T01:32:03.119Z,58.50
2017-12-22T01:33:03.094Z,53.80
2017-12-22T01:34:03.069Z,56.60
2017-12-22T01:35:03.048Z,60.40
2017-12-22T01:36:03.029Z,58.00
2017-12-22T01:37:03.009Z,60.20
2017-12-22T01:38:03.001Z,56.90
2017-12-22T01:39:02.980Z,57.50
2017-12-22T01:40:02.961Z,61.30
2017-12-22T01:41:02.935Z,58.10
2017-12-22T01:42:02.916Z,60.20
2017-12-22T01:43:02.911Z,59.70
2017-12-22T01:44:02.880Z,58.60
2017-12-22T01:45:02.871Z,59.90
2017-12-22T01:46:02.850Z,61.30
2017-12-22T01:47:02.827Z,62.00
2017-12-22T01:48:02.808Z,59.50
2017-12-22T01:49:02.787Z,60.70
2017-12-22T01:50:02.779Z,62.10
2017-12-22T01:51:02.750Z,59.80
2017-12-22T01:52:02.733Z,61.90
2017-12-22T01:53:02.716Z,61.20
2017-12-22T01:54:02.708Z,64.20
2017-12-22T01:55:02.680Z,65.30
2017-12-22T01:56:02.659Z,58.10
2017-12-22T01:57:02.639Z,61.80
2017-12-22T01:58:02.622Z,60.90
2017-12-22T01:59:02.609Z,67.20
2017-12-22T02:00:02.586Z,67.60
2017-12-22T02:01:02.570Z,58.60
2017-12-22T02:02:02.550Z,67.00
2017-12-22T02:03:02.529Z,63.70
2017-12-22T02:04:02.515Z,71.80
2017-12-22T02:05:02.495Z,64.40
2017-12-22T02:06:02.488Z,64.90
2017-12-22T02:07:02.471Z,63.80
2017-12-22T02:08:02.436Z,73.10
2017-12-22T02:09:02.423Z,67.60
2017-12-22T02:10:02.403Z,64.00
2017-12-22T02:11:02.394Z,70.80
2017-12-22T02:12:02.362Z,68.30
2017-12-22T02:13:02.349Z,70.60
2017-12-22T02:14:02.330Z,73.80
2017-12-22T02:15:02.313Z,66.20
2017-12-22T02:16:02.291Z,71.60
2017-12-22T02:17:02.272Z,73.30
2017-12-22T02:18:02.262Z,75.70
2017-12-22T02:19:02.241Z,68.30
2017-12-22T02:20:02.220Z,77.90
2017-12-22T02:21:02.198Z,72.80
2017-12-22T02:22:02.183Z,73.50
2017-12-22T02:23:02.163Z,73.10
2017-12-22T02:24:02.151Z,79.70
2017-12-22T02:25:02.125Z,72.60
2017-12-22T02:26:02.111Z,75.70
2017-12-22T02:27:02.085Z,80.40
2017-12-22T02:28:02.071Z,77.70
2017-12-22T02:29:02.048Z,75.40
2017-12-22T02:30:02.040Z,75.80
2017-12-22T02:31:02.021Z,76.10
2017-12-22T02:32:01.999Z,79.80
2017-12-22T02:33:01.978Z,81.80
2017-12-22T02:34:01.958Z,80.10
2017-12-22T02:35:01.940Z,80.40
2017-12-22T02:36:01.919Z,84.10
2017-12-22T02:37:01.903Z,81.90
2017-12-22T02:38:01.897Z,79.00
2017-12-22T02:39:01.864Z,83.40
2017-12-22T02:40:01.851Z,89.10
2017-12-22T02:41:01.833Z,91.40
2017-12-22T02:42:01.814Z,85.20
2017-12-22T02:43:01.799Z,82.30
2017-12-22T02:44:01.781Z,89.70
2017-12-22T02:45:01.761Z,88.30
2017-12-22T02:46:01.740Z,84.60
2017-12-22T02:47:01.720Z,85.10
2017-12-22T02:48:01.700Z,91.10
2017-12-22T02:49:01.685Z,84.10
2017-12-22T02:50:01.666Z,91.10
2017-12-22T02:51:01.643Z,91.50
2017-12-22T02:52:01.629Z,86.60
2017-12-22T02:53:01.614Z,88.80
2017-12-22T02:54:01.588Z,91.10
2017-12-22T02:55:01.581Z,91.60
2017-12-22T02:56:01.557Z,91.30
2017-12-22T02:57:01.537Z,91.00
2017-12-22T02:58:01.516Z,90.50
2017-12-22T02:59:01.494Z,94.50
2017-12-22T03:00:01.479Z,97.00
2017-12-22T03:01:01.459Z,98.30
2017-12-22T03:02:01.449Z,98.30
2017-12-22T03:03:01.428Z,98.60
2017-12-22T03:04:01.411Z,100.80
2017-12-22T03:05:01.388Z,107.10
2017-12-22T03:06:01.370Z,98.30
2017-12-22T03:07:01.352Z,100.80
2017-12-22T03:08:01.336Z,100.80
2017-12-22T03:09:01.320Z,94.40
2017-12-22T03:10:01.300Z,100.00
2017-12-22T03:11:01.278Z,90.90
2017-12-22T03:12:01.258Z,94.20
2017-12-22T03:13:01.240Z,91.90
2017-12-22T03:14:01.234Z,93.20
2017-12-22T03:15:01.202Z,89.20
2017-12-22T03:16:01.189Z,87.90
2017-12-22T03:17:01.170Z,85.90
2017-12-22T03:18:01.147Z,91.10
2017-12-22T03:19:01.134Z,95.50
2017-12-22T03:20:01.110Z,89.10
2017-12-22T03:21:01.094Z,97.10
2017-12-22T03:22:01.073Z,94.20
2017-12-22T03:23:01.053Z,87.60
2017-12-22T03:24:01.041Z,83.10
2017-12-22T03:25:01.016Z,90.80
2017-12-22T03:26:00.999Z,95.80
2017-12-22T03:27:00.987Z,90.10
2017-12-22T03:28:00.969Z,92.00
2017-12-22T03:29:00.946Z,94.50
2017-12-22T03:30:00.928Z,93.90
2017-12-22T03:31:00.914Z,97.20
2017-12-22T03:32:00.887Z,109.60
2017-12-22T03:33:00.871Z,100.80
2017-12-22T03:34:00.855Z,107.90
2017-12-22T03:35:00.840Z,105.10
2017-12-22T03:36:00.815Z,103.40
2017-12-22T03:37:00.797Z,107.00
2017-12-22T03:38:00.778Z,107.30
2017-12-22T03:39:00.762Z,97.20
2017-12-22T03:40:00.746Z,96.00
2017-12-22T03:41:00.723Z,93.00
2017-12-22T03:42:00.707Z,90.80
2017-12-22T03:43:00.688Z,89.30
2017-12-22T03:44:00.667Z,92.20
2017-12-22T03:45:00.658Z,88.60
2017-12-22T03:46:00.637Z,94.30
2017-12-22T03:47:00.616Z,94.40
2017-12-22T03:48:00.601Z,94.30
2017-12-22T03:49:00.580Z,94.50
2017-12-22T03:50:00.557Z,95.00
2017-12-22T03:51:00.539Z,90.50
2017-12-22T03:52:00.527Z,94.30
2017-12-22T03:53:00.503Z,95.30
2017-12-22T03:54:00.486Z,96.20
2017-12-22T03:55:00.468Z,98.50
2017-12-22T03:56:00.449Z,89.60
2017-12-22T03:57:00.429Z,94.80
2017-12-22T03:58:00.412Z,105.00
2017-12-22T03:59:00.391Z,100.20
2017-12-22T04:00:00.379Z,108.70
2017-12-22T04:01:00.360Z,109.50
2017-12-22T04:02:00.337Z,107.80
2017-12-22T04:03:00.319Z,104.30
2017-12-22T04:04:00.298Z,106.90
2017-12-22T04:05:00.282Z,110.40
2017-12-22T04:06:00.266Z,115.40
2017-12-22T04:07:00.249Z,105.70
2017-12-22T04:08:00.242Z,99.00
2017-12-22T04:09:00.209Z,110.30
2017-12-22T04:10:00.188Z,108.60
2017-12-22T04:11:00.171Z,112.50
2017-12-22T04:12:00.155Z,103.70
2017-12-22T04:13:00.139Z,97.50
2017-12-22T04:14:00.118Z,103.50
2017-12-22T04:15:00.096Z,99.90
2017-12-22T04:16:00.080Z,91.70
2017-12-22T04:17:00.064Z,89.70
2017-12-22T04:18:00.046Z,91.60
2017-12-22T04:19:00.030Z,93.50
2017-12-22T04:20:00.010Z,93.40
2017-12-22T04:20:59.988Z,99.00
2017-12-22T04:21:59.980Z,97.40
2017-12-22T04:22:59.949Z,95.40
2017-12-22T04:23:59.937Z,93.60
2017-12-22T04:24:59.919Z,91.40
2017-12-22T04:25:59.904Z,95.60
2017-12-22T04:26:59.877Z,101.30
2017-12-22T04:27:59.859Z,95.50
2017-12-22T04:28:59.844Z,95.20
2017-12-22T04:29:59.830Z,89.30
2017-12-22T04:30:59.811Z,100.40
2017-12-22T04:31:59.790Z,98.80
2017-12-22T04:32:59.767Z,102.00
2017-12-22T04:33:59.755Z,86.30
2017-12-22T04:34:59.732Z,97.90
2017-12-22T04:35:59.709Z,94.10
2017-12-22T04:36:59.691Z,96.90
2017-12-22T04:37:59.670Z,106.20
2017-12-22T04:38:59.651Z,108.60
2017-12-22T04:39:59.639Z,104.20
2017-12-22T04:40:59.619Z,107.80
2017-12-22T04:41:59.600Z,101.90
2017-12-22T04:42:59.578Z,101.00
2017-12-22T04:43:59.559Z,106.80
2017-12-22T04:44:59.550Z,108.70
2017-12-22T04:45:59.527Z,97.20
2017-12-22T04:46:59.508Z,97.30
2017-12-22T04:47:59.495Z,99.70
2017-12-22T04:48:59.472Z,98.70
2017-12-22T04:49:59.457Z,107.80
2017-12-22T04:50:59.433Z,108.90
2017-12-22T04:51:59.416Z,110.00
2017-12-22T04:52:59.451Z,99.50
2017-12-22T04:53:59.381Z,100.80
2017-12-22T04:54:59.359Z,97.90
2017-12-22T04:55:59.340Z,102.40
2017-12-22T04:56:59.319Z,104.00
2017-12-22T04:57:59.311Z,104.90
2017-12-22T04:58:59.282Z,97.70
2017-12-22T04:59:59.268Z,115.30
2017-12-22T05:00:59.248Z,101.30
2017-12-22T05:01:59.232Z,100.70
2017-12-22T05:02:59.210Z,105.70
2017-12-22T05:03:59.187Z,102.80
2017-12-22T05:04:59.170Z,101.20
2017-12-22T05:05:59.159Z,94.50
2017-12-22T05:06:59.135Z,99.40
2017-12-22T05:07:59.117Z,93.70
2017-12-22T05:08:59.094Z,90.20
2017-12-22T05:09:59.081Z,95.20
2017-12-22T05:10:59.059Z,97.80
2017-12-22T05:11:59.049Z,87.00
2017-12-22T05:12:59.038Z,91.60
2017-12-22T05:13:59.006Z,89.60
2017-12-22T05:14:58.989Z,90.60
2017-12-22T05:15:58.969Z,87.20
2017-12-22T05:16:58.950Z,89.80
2017-12-22T05:17:58.928Z,95.50
2017-12-22T05:18:58.914Z,93.20
2017-12-22T05:19:58.895Z,96.70
2017-12-22T05:20:58.875Z,92.10
2017-12-22T05:21:58.858Z,93.90
2017-12-22T05:22:58.837Z,90.70
2017-12-22T05:23:58.819Z,85.40
2017-12-22T05:24:58.809Z,94.60
2017-12-22T05:25:58.784Z,95.20
2017-12-22T05:26:58.764Z,101.10
2017-12-22T05:27:58.745Z,112.20
2017-12-22T05:28:58.730Z,102.50
2017-12-22T05:29:58.708Z,98.10
2017-12-22T05:30:58.693Z,94.40
2017-12-22T05:31:58.670Z,84.80
2017-12-22T05:32:58.656Z,94.60
2017-12-22T05:33:58.638Z,89.40
2017-12-22T05:34:58.617Z,96.40
2017-12-22T05:35:58.600Z,92.20
2017-12-22T05:36:58.578Z,99.00
2017-12-22T05:37:58.560Z,94.80
2017-12-22T05:38:58.539Z,101.80
2017-12-22T05:39:58.520Z,100.10
2017-12-22T05:40:58.509Z,97.00
2017-12-22T05:41:58.483Z,93.50
2017-12-22T05:42:58.468Z,97.60
2017-12-22T05:43:58.459Z,107.40
2017-12-22T05:44:58.432Z,97.50
2017-12-22T05:45:58.418Z,98.80
2017-12-22T05:46:58.390Z,103.20
2017-12-22T05:47:58.374Z,100.90
2017-12-22T05:48:58.353Z,105.80
2017-12-22T05:49:58.334Z,115.40
2017-12-22T05:50:58.319Z,122.30
2017-12-22T05:51:58.295Z,109.70
2017-12-22T05:52:58.282Z,101.40
2017-12-22T05:53:58.259Z,111.30
2017-12-22T05:54:58.245Z,102.50
2017-12-22T05:55:58.223Z,108.10
2017-12-22T05:56:58.220Z,121.90
2017-12-22T05:57:58.188Z,110.50
2017-12-22T05:58:58.164Z,108.80
2017-12-22T05:59:58.152Z,113.70
2017-12-22T06:00:58.126Z,112.10
2017-12-22T06:01:58.110Z,109.50
2017-12-22T06:02:58.088Z,106.90
2017-12-22T06:03:58.069Z,116.70
2017-12-22T06:04:58.052Z,106.90
2017-12-22T06:05:58.045Z,105.40
2017-12-22T06:06:58.012Z,104.20
2017-12-22T06:07:58.001Z,109.90
2017-12-22T06:08:57.982Z,118.50
2017-12-22T06:09:57.958Z,128.50
2017-12-22T06:10:57.936Z,117.60
2017-12-22T06:11:57.920Z,120.00
2017-12-22T06:12:57.899Z,117.60
2017-12-22T06:13:57.878Z,129.50
2017-12-22T06:14:57.868Z,138.50
2017-12-22T06:15:57.846Z,130.60
2017-12-22T06:16:57.825Z,130.40
2017-12-22T06:17:57.810Z,134.10
2017-12-22T06:18:57.787Z,133.60
2017-12-22T06:19:57.769Z,121.60
2017-12-22T06:20:57.749Z,126.40
2017-12-22T06:21:57.729Z,129.40
2017-12-22T06:22:57.967Z,125.80
2017-12-22T06:23:57.690Z,137.10
2017-12-22T06:24:57.680Z,133.70
2017-12-22T06:25:57.661Z,126.70
2017-12-22T06:26:57.636Z,121.10
2017-12-22T06:27:57.620Z,130.30
2017-12-22T06:28:57.601Z,138.50
2017-12-22T06:29:57.581Z,132.40
2017-12-22T06:30:57.559Z,149.40
2017-12-22T06:31:57.542Z,137.40
2017-12-22T06:32:57.517Z,129.00
2017-12-22T06:33:57.502Z,143.60
2017-12-22T06:34:57.482Z,135.80
2017-12-22T06:35:57.470Z,128.70
2017-12-22T06:36:57.446Z,151.70
2017-12-22T06:37:57.425Z,151.60
2017-12-22T06:38:57.412Z,144.40
2017-12-22T06:39:57.386Z,147.80
2017-12-22T06:40:57.370Z,140.10
2017-12-22T06:41:57.351Z,151.20
2017-12-22T06:42:57.331Z,154.10
2017-12-22T06:43:57.315Z,148.40
2017-12-22T06:44:57.288Z,155.40
2017-12-22T06:45:57.268Z,149.70
2017-12-22T06:46:57.249Z,162.50
2017-12-22T06:47:57.238Z,166.30
2017-12-22T06:48:57.217Z,170.30
2017-12-22T06:49:57.243Z,185.50
2017-12-22T06:50:57.180Z,233.90
2017-12-22T06:51:57.158Z,212.90
2017-12-22T06:52:57.141Z,228.50
2017-12-22T06:53:57.118Z,216.50
2017-12-22T06:54:57.110Z,198.90
2017-12-22T06:55:57.079Z,204.40
2017-12-22T06:56:57.070Z,222.00
2017-12-22T06:57:57.046Z,165.40
2017-12-22T06:58:57.022Z,164.70
2017-12-22T06:59:57.008Z,191.30
2017-12-22T07:00:56.991Z,263.80
2017-12-22T07:01:56.971Z,206.30
2017-12-22T07:02:56.949Z,164.40
2017-12-22T07:03:56.930Z,178.80
2017-12-22T07:04:56.915Z,193.70
2017-12-22T07:05:56.890Z,170.30
2017-12-22T07:06:56.870Z,231.80
2017-12-22T07:07:56.849Z,198.50
2017-12-22T07:08:56.842Z,172.10
2017-12-22T07:09:56.820Z,169.50
2017-12-22T07:10:56.792Z,189.40
2017-12-22T07:11:56.785Z,206.00
2017-12-22T07:12:56.756Z,211.00
2017-12-22T07:13:56.739Z,185.00
2017-12-22T07:14:56.720Z,174.40
2017-12-22T07:15:56.699Z,186.10
2017-12-22T07:16:56.690Z,171.70
2017-12-22T07:17:56.659Z,162.10
2017-12-22T07:18:56.642Z,161.10
2017-12-22T07:19:56.621Z,227.80
2017-12-22T07:20:56.611Z,306.90
2017-12-22T07:21:56.589Z,241.30
2017-12-22T07:22:56.565Z,183.00
2017-12-22T07:23:56.550Z,169.50
2017-12-22T07:24:56.527Z,182.80
2017-12-22T07:25:56.520Z,170.70
2017-12-22T07:26:56.491Z,274.80
2017-12-22T07:27:56.471Z,231.90
2017-12-22T07:28:56.455Z,318.00
2017-12-22T07:29:56.468Z,296.40
2017-12-22T07:30:56.420Z,233.80
2017-12-22T07:31:56.402Z,237.70
2017-12-22T07:32:56.380Z,224.70
2017-12-22T07:33:56.360Z,248.00
2017-12-22T07:34:56.340Z,305.90
2017-12-22T07:35:56.327Z,367.30
2017-12-22T07:36:56.310Z,347.60
2017-12-22T07:37:56.283Z,302.50
2017-12-22T07:38:56.268Z,323.40
2017-12-22T07:39:56.251Z,313.20
2017-12-22T07:40:56.229Z,400.60
2017-12-22T07:41:56.209Z,399.40
2017-12-22T07:42:56.190Z,363.30
2017-12-22T07:43:56.177Z,316.00
2017-12-22T07:44:56.159Z,329.80
2017-12-22T07:45:56.180Z,353.20
2017-12-22T07:46:56.121Z,273.50
2017-12-22T07:47:56.101Z,288.50
2017-12-22T07:48:56.102Z,299.30
2017-12-22T07:49:56.065Z,279.10
2017-12-22T07:50:56.045Z,360.60
2017-12-22T07:51:56.037Z,394.00
2017-12-22T07:52:56.010Z,396.70
2017-12-22T07:53:55.992Z,277.30
2017-12-22T07:54:55.969Z,291.10
2017-12-22T07:55:55.951Z,257.60
2017-12-22T07:56:55.931Z,253.70
2017-12-22T07:57:55.916Z,246.90
2017-12-22T07:58:55.891Z,244.70
2017-12-22T07:59:55.876Z,233.80
2017-12-22T08:00:55.850Z,271.40
2017-12-22T08:01:55.836Z,249.50
2017-12-22T08:02:55.812Z,283.00
2017-12-22T08:03:55.795Z,256.20
2017-12-22T08:04:55.779Z,206.60
2017-12-22T08:05:55.755Z,247.80
2017-12-22T08:06:55.739Z,285.20
2017-12-22T08:07:55.720Z,443.50
2017-12-22T08:08:55.699Z,335.50
2017-12-22T08:09:55.683Z,453.70
2017-12-22T08:10:55.659Z,314.20
2017-12-22T08:11:55.644Z,213.30
2017-12-22T08:12:55.630Z,243.10
2017-12-22T08:13:55.605Z,264.50
2017-12-22T08:14:55.584Z,269.70
2017-12-22T08:15:55.566Z,226.80
2017-12-22T08:16:55.556Z,242.70
2017-12-22T08:17:55.529Z,241.90
2017-12-22T08:18:55.509Z,274.30
2017-12-22T08:19:55.492Z,330.50
2017-12-22T08:20:55.474Z,252.10
2017-12-22T08:21:55.455Z,233.10
2017-12-22T08:22:55.439Z,252.10
2017-12-22T08:23:55.418Z,302.00
2017-12-22T08:24:55.398Z,253.80
2017-12-22T08:25:55.380Z,233.00
2017-12-22T08:26:55.363Z,239.20
2017-12-22T08:27:55.347Z,249.80
2017-12-22T08:28:55.324Z,260.70
2017-12-22T08:29:55.308Z,233.20
2017-12-22T08:30:55.291Z,226.40
2017-12-22T08:31:55.270Z,223.40
2017-12-22T08:32:55.257Z,264.70
2017-12-22T08:33:55.238Z,244.90
2017-12-22T08:34:55.217Z,267.80
2017-12-22T08:35:55.199Z,393.40
2017-12-22T08:36:55.174Z,260.90
2017-12-22T08:37:55.161Z,291.20
2017-12-22T08:38:55.143Z,352.50
2017-12-22T08:39:55.122Z,300.90
2017-12-22T08:40:55.107Z,219.80
2017-12-22T08:41:55.089Z,235.20
2017-12-22T08:42:55.072Z,239.50
2017-12-22T08:43:55.090Z,215.90
2017-12-22T08:44:55.036Z,261.90
2017-12-22T08:45:55.016Z,297.80
2017-12-22T08:46:55.000Z,282.70
2017-12-22T08:47:54.979Z,329.70
2017-12-22T08:48:54.964Z,245.10
2017-12-22T08:49:54.952Z,265.10
2017-12-22T08:50:54.932Z,238.00
2017-12-22T08:51:54.898Z,294.50
2017-12-22T08:52:54.884Z,303.60
2017-12-22T08:53:54.870Z,247.00
2017-12-22T08:54:54.849Z,320.80
2017-12-22T08:55:54.827Z,521.10
2017-12-22T08:56:54.811Z,496.00
2017-12-22T08:57:54.788Z,465.40
2017-12-22T08:58:54.770Z,509.60
2017-12-22T08:59:54.754Z,351.10
2017-12-22T09:00:54.731Z,310.10
2017-12-22T09:01:54.717Z,367.90
2017-12-22T09:02:54.701Z,338.30
2017-12-22T09:03:54.810Z,509.00
2017-12-22T09:04:54.661Z,423.80
2017-12-22T09:05:54.689Z,386.90
2017-12-22T09:06:54.628Z,297.70
2017-12-22T09:07:54.604Z,379.70
2017-12-22T09:08:54.590Z,590.70
2017-12-22T09:09:54.703Z,420.90
2017-12-22T09:10:54.553Z,383.50
2017-12-22T09:11:54.539Z,342.10
2017-12-22T09:12:54.513Z,526.30
2017-12-22T09:13:54.509Z,516.80
2017-12-22T09:14:54.477Z,378.50
2017-12-22T09:15:54.469Z,527.50
2017-12-22T09:16:54.439Z,477.60
2017-12-22T09:17:54.429Z,434.10
2017-12-22T09:18:54.415Z,300.90
2017-12-22T09:19:54.397Z,298.90
2017-12-22T09:20:54.380Z,304.30
2017-12-22T09:21:54.359Z,517.70
2017-12-22T09:22:54.330Z,428.90
2017-12-22T09:23:54.424Z,463.70
2017-12-22T09:24:54.298Z,361.90
2017-12-22T09:25:54.286Z,356.90
2017-12-22T09:26:54.261Z,259.00
2017-12-22T09:27:54.253Z,245.40
2017-12-22T09:28:54.224Z,243.70
2017-12-22T09:29:54.209Z,254.90
2017-12-22T09:30:54.188Z,317.60
2017-12-22T09:31:54.169Z,332.40
2017-12-22T09:32:54.159Z,329.10
2017-12-22T09:33:54.134Z,252.20
2017-12-22T09:34:54.116Z,229.20
2017-12-22T09:35:54.153Z,233.10
2017-12-22T09:36:54.087Z,285.70
2017-12-22T09:37:54.078Z,225.70
2017-12-22T09:38:54.039Z,242.50
2017-12-22T09:39:54.030Z,245.00
2017-12-22T09:40:54.008Z,236.50
2017-12-22T09:41:53.998Z,344.50
2017-12-22T09:42:53.970Z,211.00
2017-12-22T09:43:53.959Z,385.00
2017-12-22T09:44:53.940Z,255.30
2017-12-22T09:45:53.976Z,330.30
2017-12-22T09:46:53.904Z,226.80
2017-12-22T09:47:53.881Z,303.60
2017-12-22T09:48:53.860Z,358.20
2017-12-22T09:49:53.854Z,400.50
2017-12-22T09:50:53.825Z,318.50
2017-12-22T09:51:53.807Z,532.60
2017-12-22T09:52:53.803Z,372.50
2017-12-22T09:53:53.774Z,347.90
2017-12-22T09:54:53.759Z,321.30
2017-12-22T09:55:53.743Z,213.40
2017-12-22T09:56:53.716Z,248.30
2017-12-22T09:57:53.704Z,350.60
2017-12-22T09:58:53.685Z,383.10
2017-12-22T09:59:53.662Z,279.30
2017-12-22T10:00:53.645Z,319.30
2017-12-22T10:01:53.628Z,212.50
2017-12-22T10:02:53.616Z,267.20
2017-12-22T10:03:53.598Z,222.70
2017-12-22T10:04:53.579Z,205.90
2017-12-22T10:05:53.558Z,294.40
2017-12-22T10:06:53.536Z,200.00
2017-12-22T10:07:53.524Z,210.60
2017-12-22T10:08:53.507Z,196.10
2017-12-22T10:09:53.517Z,232.40
2017-12-22T10:10:53.472Z,236.10
2017-12-22T10:11:53.449Z,202.10
2017-12-22T10:12:53.430Z,216.90
2017-12-22T10:13:53.415Z,190.40
2017-12-22T10:14:53.398Z,166.20
2017-12-22T10:15:53.380Z,152.70
2017-12-22T10:16:53.369Z,147.00
2017-12-22T10:17:53.349Z,155.00
2017-12-22T10:18:53.329Z,175.40
2017-12-22T10:19:53.359Z,154.30
2017-12-22T10:20:53.296Z,143.90
2017-12-22T10:21:53.337Z,158.00
2017-12-22T10:22:53.255Z,148.00
2017-12-22T10:23:53.248Z,169.70
2017-12-22T10:24:53.218Z,174.70
2017-12-22T10:25:53.310Z,188.70
2017-12-22T10:26:53.181Z,147.90
2017-12-22T10:27:53.278Z,138.10
2017-12-22T10:28:53.149Z,134.30
2017-12-22T10:29:53.138Z,133.20
2017-12-22T10:30:53.123Z,137.80
2017-12-22T10:31:53.200Z,138.40
2017-12-22T10:32:53.081Z,139.30
2017-12-22T10:33:53.066Z,129.50
2017-12-22T10:34:53.054Z,135.20
2017-12-22T10:35:53.140Z,124.40
2017-12-22T10:36:53.012Z,125.90
2017-12-22T10:37:53.097Z,117.50
2017-12-22T10:38:52.973Z,107.10
2017-12-22T10:39:52.958Z,121.30
2017-12-22T10:40:52.942Z,138.30
2017-12-22T10:41:52.940Z,137.30
2017-12-22T10:42:52.903Z,144.60
2017-12-22T10:43:52.992Z,140.40
2017-12-22T10:44:52.880Z,119.00
2017-12-22T10:45:52.949Z,109.10
2017-12-22T10:46:52.840Z,103.50
2017-12-22T10:47:52.824Z,90.70
2017-12-22T10:48:52.800Z,88.30
2017-12-22T10:49:52.782Z,88.10
2017-12-22T10:50:52.769Z,86.10
2017-12-22T10:51:52.753Z,83.80
2017-12-22T10:52:52.753Z,93.90
2017-12-22T10:53:52.716Z,93.00
2017-12-22T10:54:52.698Z,86.40
2017-12-22T10:55:52.682Z,102.10
2017-12-22T10:56:52.659Z,104.60
2017-12-22T10:57:52.689Z,90.30
2017-12-22T10:58:52.625Z,95.40
2017-12-22T10:59:52.615Z,83.30
2017-12-22T11:00:52.596Z,88.20
2017-12-22T11:01:52.570Z,78.20
2017-12-22T11:02:52.565Z,92.20
2017-12-22T11:03:52.539Z,88.30
2017-12-22T11:04:52.565Z,84.30
2017-12-22T11:05:52.502Z,87.40
2017-12-22T11:06:52.479Z,91.30
2017-12-22T11:07:52.461Z,94.10
2017-12-22T11:08:52.445Z,78.60
2017-12-22T11:09:52.425Z,79.10
2017-12-22T11:10:52.410Z,90.40
2017-12-22T11:11:52.401Z,99.50
2017-12-22T11:12:52.376Z,101.10
2017-12-22T11:13:52.359Z,111.90
2017-12-22T11:14:52.337Z,104.90
2017-12-22T11:15:52.332Z,90.70
2017-12-22T11:16:52.312Z,93.60
2017-12-22T11:17:52.297Z,94.90
2017-12-22T11:18:52.278Z,87.80
2017-12-22T11:19:52.253Z,98.50
2017-12-22T11:20:52.245Z,81.50
2017-12-22T11:21:52.216Z,99.40
2017-12-22T11:22:52.216Z,81.50
2017-12-22T11:23:52.184Z,86.20
2017-12-22T11:24:52.164Z,95.50
2017-12-22T11:25:52.145Z,93.40
2017-12-22T11:26:52.130Z,94.00
2017-12-22T11:27:52.110Z,96.70
2017-12-22T11:28:52.095Z,86.20
2017-12-22T11:29:52.080Z,87.20
2017-12-22T11:30:52.058Z,100.00
2017-12-22T11:31:52.048Z,89.40
2017-12-22T11:32:52.020Z,95.70
2017-12-22T11:33:52.065Z,110.80
2017-12-22T11:34:51.989Z,119.60
2017-12-22T11:35:51.967Z,103.40
2017-12-22T11:36:51.950Z,108.60
2017-12-22T11:37:51.933Z,89.60
2017-12-22T11:38:51.924Z,87.30
2017-12-22T11:39:51.899Z,96.10
2017-12-22T11:40:51.880Z,78.40
2017-12-22T11:41:51.859Z,79.00
2017-12-22T11:42:51.851Z,83.80
2017-12-22T11:43:51.830Z,72.70
2017-12-22T11:44:51.807Z,73.80
2017-12-22T11:45:51.801Z,77.10
2017-12-22T11:46:51.776Z,79.10
2017-12-22T11:47:51.760Z,77.30
2017-12-22T11:48:51.739Z,78.40
2017-12-22T11:49:51.767Z,80.00
2017-12-22T11:50:51.708Z,78.10
2017-12-22T11:51:51.698Z,82.30
2017-12-22T11:52:51.672Z,75.10
2017-12-22T11:53:51.653Z,81.50
2017-12-22T11:54:51.630Z,73.00
2017-12-22T11:55:51.619Z,72.20
2017-12-22T11:56:51.601Z,79.10
2017-12-22T11:57:51.580Z,77.50
2017-12-22T11:58:51.560Z,78.50
2017-12-22T11:59:51.541Z,70.40
2017-12-22T12:00:51.527Z,71.60
2017-12-22T12:01:51.517Z,71.20
2017-12-22T12:02:51.492Z,64.40
2017-12-22T12:03:51.469Z,68.90
2017-12-22T12:04:51.460Z,60.20
2017-12-22T12:05:51.439Z,69.90
2017-12-22T12:06:51.423Z,65.70
2017-12-22T12:07:51.400Z,58.70
2017-12-22T12:08:51.390Z,60.10
2017-12-22T12:09:51.438Z,59.40
2017-12-22T12:10:51.346Z,63.70
2017-12-22T12:11:51.330Z,64.80
2017-12-22T12:12:51.310Z,66.70
2017-12-22T12:13:51.297Z,60.60
2017-12-22T12:14:51.279Z,66.30
2017-12-22T12:15:51.257Z,58.30
2017-12-22T12:16:51.240Z,64.10
2017-12-22T12:17:51.233Z,64.50
2017-12-22T12:18:51.211Z,57.50
2017-12-22T12:19:51.193Z,59.10
2017-12-22T12:20:51.170Z,60.80
2017-12-22T12:21:51.157Z,59.70
2017-12-22T12:22:51.146Z,54.80
2017-12-22T12:23:51.120Z,54.30
2017-12-22T12:24:51.099Z,67.90
2017-12-22T12:25:51.082Z,78.30
2017-12-22T12:26:51.077Z,84.90
2017-12-22T12:27:51.049Z,83.70
2017-12-22T12:28:51.035Z,69.40
2017-12-22T12:29:51.012Z,60.10
2017-12-22T12:30:50.997Z,56.90
2017-12-22T12:31:50.980Z,57.90
2017-12-22T12:32:50.965Z,50.90
2017-12-22T12:33:51.010Z,49.40
2017-12-22T12:34:50.926Z,47.90
2017-12-22T12:35:50.912Z,47.30
2017-12-22T12:36:50.895Z,48.10
2017-12-22T12:37:50.878Z,48.70
2017-12-22T12:38:50.859Z,52.00
2017-12-22T12:39:50.841Z,48.20